sensor_id;sensor_type;location;lat;lon;timestamp;pressure;altitude;pressure_sealevel;temperature;humidity
64967;BME280;51710;38.732;-121.358;2023-02-23T00:01:51;100061.25;;;11.25;42.32
64967;BME280;51710;38.732;-121.358;2023-02-23T00:04:17;100063.63;;;11.20;42.62
64967;BME280;51710;38.732;-121.358;2023-02-23T00:06:44;100064.31;;;11.14;42.63
64967;BME280;51710;38.732;-121.358;2023-02-23T00:09:10;100057.38;;;11.05;42.71
64967;BME280;51710;38.732;-121.358;2023-02-23T00:11:40;100056.38;;;11.06;43.37
64967;BME280;51710;38.732;-121.358;2023-02-23T00:14:06;100055.66;;;11.12;43.63
64967;BME280;51710;38.732;-121.358;2023-02-23T00:16:33;100048.31;;;11.14;42.72
64967;BME280;51710;38.732;-121.358;2023-02-23T00:18:59;100059.06;;;11.06;43.11
64967;BME280;51710;38.732;-121.358;2023-02-23T00:21:30;100076.44;;;10.94;42.00
64967;BME280;51710;38.732;-121.358;2023-02-23T00:24:02;100083.38;;;10.73;42.59
64967;BME280;51710;38.732;-121.358;2023-02-23T00:26:31;100100.13;;;10.51;43.30
64967;BME280;51710;38.732;-121.358;2023-02-23T00:29:08;100105.66;;;10.33;44.19
64967;BME280;51710;38.732;-121.358;2023-02-23T00:31:36;100098.91;;;10.14;44.06
64967;BME280;51710;38.732;-121.358;2023-02-23T00:34:03;100077.44;;;10.00;44.41
64967;BME280;51710;38.732;-121.358;2023-02-23T00:36:33;100072.16;;;9.92;44.52
64967;BME280;51710;38.732;-121.358;2023-02-23T00:39:04;100067.81;;;9.91;45.05
64967;BME280;51710;38.732;-121.358;2023-02-23T00:41:42;100060.69;;;9.91;44.93
64967;BME280;51710;38.732;-121.358;2023-02-23T00:44:08;100052.22;;;9.88;44.90
64967;BME280;51710;38.732;-121.358;2023-02-23T00:46:34;100063.69;;;9.80;44.87
64967;BME280;51710;38.732;-121.358;2023-02-23T00:49:01;100059.53;;;9.70;45.50
64967;BME280;51710;38.732;-121.358;2023-02-23T00:51:29;100063.69;;;9.64;46.03
64967;BME280;51710;38.732;-121.358;2023-02-23T00:53:58;100066.53;;;9.63;46.47
64967;BME280;51710;38.732;-121.358;2023-02-23T00:56:25;100070.88;;;9.64;47.40
64967;BME280;51710;38.732;-121.358;2023-02-23T00:58:53;100070.84;;;9.56;47.74
64967;BME280;51710;38.732;-121.358;2023-02-23T01:01:20;100076.50;;;9.53;48.14
64967;BME280;51710;38.732;-121.358;2023-02-23T01:03:46;100061.38;;;9.45;49.42
64967;BME280;51710;38.732;-121.358;2023-02-23T01:06:15;100066.22;;;9.26;50.02
64967;BME280;51710;38.732;-121.358;2023-02-23T01:08:44;100058.22;;;9.09;49.80
64967;BME280;51710;38.732;-121.358;2023-02-23T01:11:20;100069.19;;;9.06;50.31
64967;BME280;51710;38.732;-121.358;2023-02-23T01:13:50;100067.00;;;9.10;50.88
64967;BME280;51710;38.732;-121.358;2023-02-23T01:16:19;100071.84;;;9.15;50.85
64967;BME280;51710;38.732;-121.358;2023-02-23T01:18:46;100069.34;;;9.13;50.96
64967;BME280;51710;38.732;-121.358;2023-02-23T01:21:19;100076.13;;;9.07;50.95
64967;BME280;51710;38.732;-121.358;2023-02-23T01:23:46;100062.84;;;8.99;51.27
64967;BME280;51710;38.732;-121.358;2023-02-23T01:26:24;100080.78;;;8.97;51.43
64967;BME280;51710;38.732;-121.358;2023-02-23T01:28:56;100080.44;;;9.00;51.26
64967;BME280;51710;38.732;-121.358;2023-02-23T01:31:23;100071.00;;;9.06;51.46
64967;BME280;51710;38.732;-121.358;2023-02-23T01:33:57;100075.47;;;9.13;51.61
64967;BME280;51710;38.732;-121.358;2023-02-23T01:36:24;100079.81;;;9.23;51.10
64967;BME280;51710;38.732;-121.358;2023-02-23T01:38:51;100069.38;;;9.29;51.29
64967;BME280;51710;38.732;-121.358;2023-02-23T01:41:22;100076.84;;;9.34;51.11
64967;BME280;51710;38.732;-121.358;2023-02-23T01:46:32;100078.47;;;9.35;51.39
64967;BME280;51710;38.732;-121.358;2023-02-23T01:48:59;100076.31;;;9.38;51.13
64967;BME280;51710;38.732;-121.358;2023-02-23T01:51:39;100086.78;;;9.32;51.59
64967;BME280;51710;38.732;-121.358;2023-02-23T01:54:20;100084.47;;;9.29;51.43
64967;BME280;51710;38.732;-121.358;2023-02-23T01:56:51;100084.47;;;9.29;51.32
64967;BME280;51710;38.732;-121.358;2023-02-23T01:59:30;100079.50;;;9.26;51.02
64967;BME280;51710;38.732;-121.358;2023-02-23T02:01:59;100090.25;;;9.24;51.06
64967;BME280;51710;38.732;-121.358;2023-02-23T02:04:26;100094.75;;;9.24;51.32
64967;BME280;51710;38.732;-121.358;2023-02-23T02:06:53;100097.88;;;9.11;51.46
64967;BME280;51710;38.732;-121.358;2023-02-23T02:09:22;100103.03;;;9.04;52.09
64967;BME280;51710;38.732;-121.358;2023-02-23T02:11:53;100101.34;;;9.03;52.38
64967;BME280;51710;38.732;-121.358;2023-02-23T02:14:29;100104.97;;;8.94;52.06
64967;BME280;51710;38.732;-121.358;2023-02-23T02:19:45;100119.53;;;8.82;52.87
64967;BME280;51710;38.732;-121.358;2023-02-23T02:22:58;100125.19;;;8.79;53.19
64967;BME280;51710;38.732;-121.358;2023-02-23T02:37:30;100132.13;;;8.80;51.61
64967;BME280;51710;38.732;-121.358;2023-02-23T02:45:43;100138.34;;;8.55;51.68
64967;BME280;51710;38.732;-121.358;2023-02-23T02:48:22;100137.31;;;8.48;51.67
64967;BME280;51710;38.732;-121.358;2023-02-23T02:51:04;100139.63;;;8.43;51.15
64967;BME280;51710;38.732;-121.358;2023-02-23T02:56:35;100142.22;;;8.35;51.60
64967;BME280;51710;38.732;-121.358;2023-02-23T02:59:13;100147.16;;;8.30;50.28
64967;BME280;51710;38.732;-121.358;2023-02-23T03:01:58;100146.47;;;8.28;49.35
64967;BME280;51710;38.732;-121.358;2023-02-23T03:04:43;100146.81;;;8.25;48.88
64967;BME280;51710;38.732;-121.358;2023-02-23T03:07:35;100148.38;;;8.18;49.42
64967;BME280;51710;38.732;-121.358;2023-02-23T03:17:02;100168.81;;;8.00;47.96
64967;BME280;51710;38.732;-121.358;2023-02-23T03:19:59;100168.06;;;7.90;48.27
64967;BME280;51710;38.732;-121.358;2023-02-23T03:22:54;100175.66;;;7.85;48.14
64967;BME280;51710;38.732;-121.358;2023-02-23T03:25:53;100172.94;;;7.77;48.58
64967;BME280;51710;38.732;-121.358;2023-02-23T03:29:14;100180.22;;;7.75;48.81
64967;BME280;51710;38.732;-121.358;2023-02-23T03:32:06;100181.84;;;7.76;48.17
64967;BME280;51710;38.732;-121.358;2023-02-23T03:34:56;100189.00;;;7.75;47.71
64967;BME280;51710;38.732;-121.358;2023-02-23T03:37:49;100187.63;;;7.71;47.52
64967;BME280;51710;38.732;-121.358;2023-02-23T03:40:38;100180.78;;;7.69;48.09
64967;BME280;51710;38.732;-121.358;2023-02-23T03:43:31;100191.72;;;7.66;47.41
64967;BME280;51710;38.732;-121.358;2023-02-23T03:46:19;100192.34;;;7.60;47.56
64967;BME280;51710;38.732;-121.358;2023-02-23T03:49:08;100189.97;;;7.57;48.54
64967;BME280;51710;38.732;-121.358;2023-02-23T03:52:09;100192.09;;;7.53;48.51
64967;BME280;51710;38.732;-121.358;2023-02-23T03:54:59;100187.94;;;7.51;48.54
64967;BME280;51710;38.732;-121.358;2023-02-23T03:57:50;100193.53;;;7.48;48.39
64967;BME280;51710;38.732;-121.358;2023-02-23T04:00:40;100193.81;;;7.45;49.33
64967;BME280;51710;38.732;-121.358;2023-02-23T04:03:26;100201.09;;;7.43;48.59
64967;BME280;51710;38.732;-121.358;2023-02-23T04:06:16;100210.59;;;7.36;49.37
64967;BME280;51710;38.732;-121.358;2023-02-23T04:09:04;100213.19;;;7.28;49.61
64967;BME280;51710;38.732;-121.358;2023-02-23T04:18:13;100230.75;;;7.02;50.41
64967;BME280;51710;38.732;-121.358;2023-02-23T04:20:39;100225.91;;;6.97;50.78
64967;BME280;51710;38.732;-121.358;2023-02-23T04:23:06;100239.56;;;6.93;50.79
64967;BME280;51710;38.732;-121.358;2023-02-23T04:25:32;100243.34;;;6.90;51.66
64967;BME280;51710;38.732;-121.358;2023-02-23T04:27:58;100245.44;;;6.87;51.19
64967;BME280;51710;38.732;-121.358;2023-02-23T04:30:25;100251.00;;;6.83;52.02
64967;BME280;51710;38.732;-121.358;2023-02-23T04:32:53;100249.66;;;6.79;52.04
64967;BME280;51710;38.732;-121.358;2023-02-23T04:35:20;100251.59;;;6.77;52.24
64967;BME280;51710;38.732;-121.358;2023-02-23T04:37:46;100258.00;;;6.75;53.02
64967;BME280;51710;38.732;-121.358;2023-02-23T04:40:12;100260.78;;;6.73;52.41
64967;BME280;51710;38.732;-121.358;2023-02-23T04:42:39;100258.59;;;6.69;52.88
64967;BME280;51710;38.732;-121.358;2023-02-23T04:45:07;100266.94;;;6.64;52.91
64967;BME280;51710;38.732;-121.358;2023-02-23T04:47:33;100260.84;;;6.64;53.07
64967;BME280;51710;38.732;-121.358;2023-02-23T04:50:00;100265.44;;;6.62;53.52
64967;BME280;51710;38.732;-121.358;2023-02-23T04:52:26;100267.25;;;6.61;53.35
64967;BME280;51710;38.732;-121.358;2023-02-23T04:54:52;100263.63;;;6.62;53.73
64967;BME280;51710;38.732;-121.358;2023-02-23T04:57:18;100270.88;;;6.60;53.79
64967;BME280;51710;38.732;-121.358;2023-02-23T04:59:44;100281.72;;;6.57;54.19
64967;BME280;51710;38.732;-121.358;2023-02-23T05:02:11;100277.56;;;6.55;54.02
64967;BME280;51710;38.732;-121.358;2023-02-23T05:04:37;100278.13;;;6.49;55.14
64967;BME280;51710;38.732;-121.358;2023-02-23T05:07:03;100281.19;;;6.44;55.48
64967;BME280;51710;38.732;-121.358;2023-02-23T05:09:30;100283.28;;;6.41;55.45
64967;BME280;51710;38.732;-121.358;2023-02-23T05:11:58;100283.44;;;6.39;55.43
64967;BME280;51710;38.732;-121.358;2023-02-23T05:14:24;100291.38;;;6.39;55.92
64967;BME280;51710;38.732;-121.358;2023-02-23T05:16:51;100295.66;;;6.40;56.25
64967;BME280;51710;38.732;-121.358;2023-02-23T05:19:18;100293.03;;;6.40;56.48
64967;BME280;51710;38.732;-121.358;2023-02-23T05:21:44;100294.00;;;6.39;56.31
64967;BME280;51710;38.732;-121.358;2023-02-23T05:24:10;100304.59;;;6.39;56.50
64967;BME280;51710;38.732;-121.358;2023-02-23T05:26:37;100306.41;;;6.39;56.60
64967;BME280;51710;38.732;-121.358;2023-02-23T05:29:03;100302.91;;;6.38;57.00
64967;BME280;51710;38.732;-121.358;2023-02-23T05:31:31;100308.19;;;6.38;57.20
64967;BME280;51710;38.732;-121.358;2023-02-23T05:33:57;100317.13;;;6.37;57.78
64967;BME280;51710;38.732;-121.358;2023-02-23T05:36:23;100321.69;;;6.35;57.61
64967;BME280;51710;38.732;-121.358;2023-02-23T05:38:50;100324.63;;;6.32;57.48
64967;BME280;51710;38.732;-121.358;2023-02-23T05:41:19;100327.56;;;6.29;57.86
64967;BME280;51710;38.732;-121.358;2023-02-23T05:43:46;100330.22;;;6.29;58.10
64967;BME280;51710;38.732;-121.358;2023-02-23T05:46:18;100333.41;;;6.23;58.26
64967;BME280;51710;38.732;-121.358;2023-02-23T05:48:46;100334.63;;;6.19;58.43
64967;BME280;51710;38.732;-121.358;2023-02-23T05:51:15;100334.22;;;6.14;58.48
64967;BME280;51710;38.732;-121.358;2023-02-23T05:53:42;100334.09;;;6.06;58.81
64967;BME280;51710;38.732;-121.358;2023-02-23T05:56:12;100340.75;;;6.01;59.78
64967;BME280;51710;38.732;-121.358;2023-02-23T05:58:43;100345.78;;;5.94;59.88
64967;BME280;51710;38.732;-121.358;2023-02-23T06:01:09;100343.53;;;5.90;59.51
64967;BME280;51710;38.732;-121.358;2023-02-23T06:03:36;100347.00;;;5.90;59.41
64967;BME280;51710;38.732;-121.358;2023-02-23T06:06:02;100342.72;;;5.89;59.81
64967;BME280;51710;38.732;-121.358;2023-02-23T06:08:28;100349.66;;;5.90;59.72
64967;BME280;51710;38.732;-121.358;2023-02-23T06:10:55;100349.66;;;5.90;59.80
64967;BME280;51710;38.732;-121.358;2023-02-23T06:13:21;100353.28;;;5.89;59.79
64967;BME280;51710;38.732;-121.358;2023-02-23T06:15:47;100360.22;;;5.90;59.77
64967;BME280;51710;38.732;-121.358;2023-02-23T06:18:14;100363.84;;;5.89;60.15
64967;BME280;51710;38.732;-121.358;2023-02-23T06:20:41;100365.50;;;5.90;59.80
64967;BME280;51710;38.732;-121.358;2023-02-23T06:23:08;100362.84;;;5.90;60.02
64967;BME280;51710;38.732;-121.358;2023-02-23T06:25:35;100365.50;;;5.90;59.77
64967;BME280;51710;38.732;-121.358;2023-02-23T06:28:01;100371.78;;;5.89;60.22
64967;BME280;51710;38.732;-121.358;2023-02-23T06:30:27;100376.34;;;5.87;60.36
64967;BME280;51710;38.732;-121.358;2023-02-23T06:32:54;100366.28;;;5.81;60.40
64967;BME280;51710;38.732;-121.358;2023-02-23T06:35:20;100376.84;;;5.81;60.52
64967;BME280;51710;38.732;-121.358;2023-02-23T06:37:47;100370.16;;;5.77;60.92
64967;BME280;51710;38.732;-121.358;2023-02-23T06:40:13;100384.47;;;5.74;60.86
64967;BME280;51710;38.732;-121.358;2023-02-23T06:42:39;100380.84;;;5.75;60.84
64967;BME280;51710;38.732;-121.358;2023-02-23T06:45:06;100378.91;;;5.78;60.70
64967;BME280;51710;38.732;-121.358;2023-02-23T06:47:32;100375.44;;;5.77;61.15
64967;BME280;51710;38.732;-121.358;2023-02-23T06:49:58;100384.06;;;5.79;60.74
64967;BME280;51710;38.732;-121.358;2023-02-23T06:52:25;100389.34;;;5.79;61.17
64967;BME280;51710;38.732;-121.358;2023-02-23T06:54:51;100390.19;;;5.80;60.98
64967;BME280;51710;38.732;-121.358;2023-02-23T06:57:17;100385.03;;;5.78;61.30
64967;BME280;51710;38.732;-121.358;2023-02-23T06:59:44;100386.97;;;5.76;61.25
64967;BME280;51710;38.732;-121.358;2023-02-23T07:02:11;100385.56;;;5.72;61.74
64967;BME280;51710;38.732;-121.358;2023-02-23T07:04:38;100393.06;;;5.67;61.51
64967;BME280;51710;38.732;-121.358;2023-02-23T07:07:04;100397.06;;;5.61;61.98
64967;BME280;51710;38.732;-121.358;2023-02-23T07:09:30;100396.25;;;5.61;61.98
64967;BME280;51710;38.732;-121.358;2023-02-23T07:11:57;100407.06;;;5.58;62.16
64967;BME280;51710;38.732;-121.358;2023-02-23T07:14:24;100402.63;;;5.58;62.48
64967;BME280;51710;38.732;-121.358;2023-02-23T07:16:50;100403.47;;;5.59;62.40
64967;BME280;51710;38.732;-121.358;2023-02-23T07:19:16;100405.41;;;5.57;62.65
64967;BME280;51710;38.732;-121.358;2023-02-23T07:21:43;100402.06;;;5.55;62.39
64967;BME280;51710;38.732;-121.358;2023-02-23T07:24:09;100400.28;;;5.55;62.51
64967;BME280;51710;38.732;-121.358;2023-02-23T07:26:35;100404.97;;;5.52;62.56
64967;BME280;51710;38.732;-121.358;2023-02-23T07:29:02;100399.00;;;5.50;62.52
64967;BME280;51710;38.732;-121.358;2023-02-23T07:31:28;100400.91;;;5.48;62.65
64967;BME280;51710;38.732;-121.358;2023-02-23T07:33:54;100399.25;;;5.47;63.09
64967;BME280;51710;38.732;-121.358;2023-02-23T07:36:22;100398.41;;;5.46;63.08
64967;BME280;51710;38.732;-121.358;2023-02-23T07:38:49;100392.56;;;5.43;63.09
64967;BME280;51710;38.732;-121.358;2023-02-23T07:41:15;100393.56;;;5.42;63.35
64967;BME280;51710;38.732;-121.358;2023-02-23T07:43:41;100397.28;;;5.39;63.19
64967;BME280;51710;38.732;-121.358;2023-02-23T07:46:08;100389.75;;;5.35;63.74
64967;BME280;51710;38.732;-121.358;2023-02-23T07:48:34;100396.28;;;5.31;63.56
64967;BME280;51710;38.732;-121.358;2023-02-23T07:51:00;100402.63;;;5.28;63.88
64967;BME280;51710;38.732;-121.358;2023-02-23T07:53:26;100408.19;;;5.25;63.84
64967;BME280;51710;38.732;-121.358;2023-02-23T07:55:57;100401.38;;;5.23;64.07
64967;BME280;51710;38.732;-121.358;2023-02-23T07:58:23;100402.31;;;5.22;64.86
64967;BME280;51710;38.732;-121.358;2023-02-23T08:00:49;100409.28;;;5.23;64.58
64967;BME280;51710;38.732;-121.358;2023-02-23T08:03:15;100401.63;;;5.20;64.54
64967;BME280;51710;38.732;-121.358;2023-02-23T08:05:42;100406.09;;;5.19;65.03
64967;BME280;51710;38.732;-121.358;2023-02-23T08:08:09;100411.22;;;5.21;64.80
64967;BME280;51710;38.732;-121.358;2023-02-23T08:10:37;100407.34;;;5.25;64.84
64967;BME280;51710;38.732;-121.358;2023-02-23T08:13:03;100408.19;;;5.25;64.85
64967;BME280;51710;38.732;-121.358;2023-02-23T08:15:30;100412.38;;;5.28;64.89
64967;BME280;51710;38.732;-121.358;2023-02-23T08:17:56;100419.31;;;5.29;65.39
64967;BME280;51710;38.732;-121.358;2023-02-23T08:20:23;100421.69;;;5.32;65.01
64967;BME280;51710;38.732;-121.358;2023-02-23T08:22:54;100426.00;;;5.33;64.81
64967;BME280;51710;38.732;-121.358;2023-02-23T08:25:20;100421.44;;;5.35;64.78
64967;BME280;51710;38.732;-121.358;2023-02-23T08:27:47;100421.44;;;5.35;64.81
64967;BME280;51710;38.732;-121.358;2023-02-23T08:30:14;100429.38;;;5.35;64.72
64967;BME280;51710;38.732;-121.358;2023-02-23T08:32:41;100422.81;;;5.29;64.84
64967;BME280;51710;38.732;-121.358;2023-02-23T08:35:09;100424.16;;;5.24;65.08
64967;BME280;51710;38.732;-121.358;2023-02-23T08:37:35;100421.06;;;5.19;64.90
64967;BME280;51710;38.732;-121.358;2023-02-23T08:40:02;100425.63;;;5.17;65.08
64967;BME280;51710;38.732;-121.358;2023-02-23T08:42:28;100434.53;;;5.16;65.13
64967;BME280;51710;38.732;-121.358;2023-02-23T08:44:55;100427.31;;;5.18;65.06
64967;BME280;51710;38.732;-121.358;2023-02-23T08:47:21;100438.25;;;5.13;65.16
64967;BME280;51710;38.732;-121.358;2023-02-23T08:49:52;100439.38;;;5.11;65.24
64967;BME280;51710;38.732;-121.358;2023-02-23T08:52:19;100436.97;;;5.08;65.35
64967;BME280;51710;38.732;-121.358;2023-02-23T08:54:46;100443.34;;;5.05;65.11
64967;BME280;51710;38.732;-121.358;2023-02-23T08:57:12;100442.66;;;5.03;65.56
64967;BME280;51710;38.732;-121.358;2023-02-23T08:59:38;100442.34;;;4.97;65.22
64967;BME280;51710;38.732;-121.358;2023-02-23T09:02:08;100444.97;;;4.97;65.33
64967;BME280;51710;38.732;-121.358;2023-02-23T09:04:36;100444.25;;;4.95;65.36
64967;BME280;51710;38.732;-121.358;2023-02-23T09:07:03;100450.75;;;4.91;65.48
64967;BME280;51710;38.732;-121.358;2023-02-23T09:09:30;100455.31;;;4.89;65.23
64967;BME280;51710;38.732;-121.358;2023-02-23T09:11:57;100456.41;;;4.86;65.34
64967;BME280;51710;38.732;-121.358;2023-02-23T09:14:23;100457.63;;;4.82;65.51
64967;BME280;51710;38.732;-121.358;2023-02-23T09:16:49;100457.75;;;4.81;65.29
64967;BME280;51710;38.732;-121.358;2023-02-23T09:19:16;100460.53;;;4.79;65.71
64967;BME280;51710;38.732;-121.358;2023-02-23T09:21:43;100456.06;;;4.80;65.42
64967;BME280;51710;38.732;-121.358;2023-02-23T09:24:09;100463.03;;;4.81;65.48
64967;BME280;51710;38.732;-121.358;2023-02-23T09:26:35;100471.88;;;4.80;65.26
64967;BME280;51710;38.732;-121.358;2023-02-23T09:29:05;100459.69;;;4.79;65.33
64967;BME280;51710;38.732;-121.358;2023-02-23T09:31:32;100468.44;;;4.79;65.30
64967;BME280;51710;38.732;-121.358;2023-02-23T09:33:59;100468.56;;;4.78;65.30
64967;BME280;51710;38.732;-121.358;2023-02-23T09:36:27;100477.69;;;4.74;65.30
64967;BME280;51710;38.732;-121.358;2023-02-23T09:38:55;100469.19;;;4.70;65.40
64967;BME280;51710;38.732;-121.358;2023-02-23T09:46:58;100471.59;;;4.62;65.58
64967;BME280;51710;38.732;-121.358;2023-02-23T09:49:31;100477.13;;;4.59;65.57
64967;BME280;51710;38.732;-121.358;2023-02-23T09:52:00;100487.81;;;4.57;65.79
64967;BME280;51710;38.732;-121.358;2023-02-23T09:54:32;100494.16;;;4.55;65.43
64967;BME280;51710;38.732;-121.358;2023-02-23T09:57:05;100488.06;;;4.54;65.47
64967;BME280;51710;38.732;-121.358;2023-02-23T09:59:36;100485.56;;;4.53;65.68
64967;BME280;51710;38.732;-121.358;2023-02-23T10:04:45;100480.78;;;4.47;65.42
64967;BME280;51710;38.732;-121.358;2023-02-23T10:10:20;100484.59;;;4.43;65.64
64967;BME280;51710;38.732;-121.358;2023-02-23T10:13:15;100479.47;;;4.41;65.84
64967;BME280;51710;38.732;-121.358;2023-02-23T10:26:46;100480.19;;;4.32;66.08
64967;BME280;51710;38.732;-121.358;2023-02-23T10:29:25;100477.81;;;4.29;65.83
64967;BME280;51710;38.732;-121.358;2023-02-23T10:32:04;100476.28;;;4.27;66.19
64967;BME280;51710;38.732;-121.358;2023-02-23T10:34:31;100479.75;;;4.27;65.78
64967;BME280;51710;38.732;-121.358;2023-02-23T10:37:02;100472.81;;;4.26;66.15
64967;BME280;51710;38.732;-121.358;2023-02-23T10:39:30;100457.84;;;4.27;66.41
64967;BME280;51710;38.732;-121.358;2023-02-23T10:42:00;100462.00;;;4.29;66.31
64967;BME280;51710;38.732;-121.358;2023-02-23T10:44:28;100462.00;;;4.29;66.33
64967;BME280;51710;38.732;-121.358;2023-02-23T10:47:06;100466.34;;;4.30;66.40
64967;BME280;51710;38.732;-121.358;2023-02-23T10:49:54;100473.13;;;4.33;66.88
64967;BME280;51710;38.732;-121.358;2023-02-23T10:52:29;100464.28;;;4.34;66.34
64967;BME280;51710;38.732;-121.358;2023-02-23T10:54:58;100466.53;;;4.38;66.66
64967;BME280;51710;38.732;-121.358;2023-02-23T10:57:33;100476.09;;;4.39;66.08
64967;BME280;51710;38.732;-121.358;2023-02-23T11:02:42;100474.31;;;4.40;66.20
64967;BME280;51710;38.732;-121.358;2023-02-23T11:05:48;100474.19;;;4.41;66.37
64967;BME280;51710;38.732;-121.358;2023-02-23T11:08:35;100476.81;;;4.41;66.50
64967;BME280;51710;38.732;-121.358;2023-02-23T11:11:19;100470.75;;;4.41;66.26
64967;BME280;51710;38.732;-121.358;2023-02-23T11:13:50;100469.06;;;4.40;65.92
64967;BME280;51710;38.732;-121.358;2023-02-23T11:16:23;100476.38;;;4.36;66.26
64967;BME280;51710;38.732;-121.358;2023-02-23T11:18:57;100469.56;;;4.34;66.19
64967;BME280;51710;38.732;-121.358;2023-02-23T11:21:25;100480.91;;;4.34;66.19
64967;BME280;51710;38.732;-121.358;2023-02-23T11:23:57;100485.84;;;4.28;65.71
64967;BME280;51710;38.732;-121.358;2023-02-23T11:26:30;100484.66;;;4.21;66.28
64967;BME280;51710;38.732;-121.358;2023-02-23T11:29:00;100491.72;;;4.20;66.23
64967;BME280;51710;38.732;-121.358;2023-02-23T11:31:31;100492.56;;;4.21;66.17
64967;BME280;51710;38.732;-121.358;2023-02-23T11:34:01;100491.84;;;4.19;66.07
64967;BME280;51710;38.732;-121.358;2023-02-23T11:36:31;100495.72;;;4.15;66.37
64967;BME280;51710;38.732;-121.358;2023-02-23T11:41:42;100492.97;;;4.16;66.32
64967;BME280;51710;38.732;-121.358;2023-02-23T11:44:22;100498.34;;;4.15;66.46
64967;BME280;51710;38.732;-121.358;2023-02-23T11:46:49;100490.78;;;4.10;66.14
64967;BME280;51710;38.732;-121.358;2023-02-23T11:49:29;100488.41;;;4.07;65.99
64967;BME280;51710;38.732;-121.358;2023-02-23T11:51:56;100483.41;;;4.04;66.32
64967;BME280;51710;38.732;-121.358;2023-02-23T11:54:34;100485.53;;;3.99;66.38
64967;BME280;51710;38.732;-121.358;2023-02-23T11:57:00;100489.38;;;3.95;66.48
64967;BME280;51710;38.732;-121.358;2023-02-23T11:59:32;100489.03;;;3.89;66.12
64967;BME280;51710;38.732;-121.358;2023-02-23T12:04:44;100492.88;;;3.85;66.32
64967;BME280;51710;38.732;-121.358;2023-02-23T12:10:41;100500.50;;;3.77;66.04
64967;BME280;51710;38.732;-121.358;2023-02-23T12:16:00;100506.25;;;3.71;66.34
64967;BME280;51710;38.732;-121.358;2023-02-23T12:18:52;100507.31;;;3.68;66.21
64967;BME280;51710;38.732;-121.358;2023-02-23T12:27:20;100505.19;;;3.62;66.42
64967;BME280;51710;38.732;-121.358;2023-02-23T12:30:22;100500.03;;;3.61;66.46
64967;BME280;51710;38.732;-121.358;2023-02-23T12:33:20;100507.22;;;3.59;66.69
64967;BME280;51710;38.732;-121.358;2023-02-23T12:35:56;100508.06;;;3.59;66.76
64967;BME280;51710;38.732;-121.358;2023-02-23T12:41:39;100515.84;;;3.61;67.47
64967;BME280;51710;38.732;-121.358;2023-02-23T12:46:49;100518.59;;;3.59;67.42
64967;BME280;51710;38.732;-121.358;2023-02-23T12:49:29;100523.94;;;3.58;67.35
64967;BME280;51710;38.732;-121.358;2023-02-23T12:52:10;100520.50;;;3.57;67.59
64967;BME280;51710;38.732;-121.358;2023-02-23T12:54:40;100523.25;;;3.56;67.40
64967;BME280;51710;38.732;-121.358;2023-02-23T13:00:03;100532.69;;;3.58;67.76
64967;BME280;51710;38.732;-121.358;2023-02-23T13:03:39;100535.31;;;3.58;67.57
64967;BME280;51710;38.732;-121.358;2023-02-23T13:06:31;100529.34;;;3.56;68.02
64967;BME280;51710;38.732;-121.358;2023-02-23T13:14:49;100543.09;;;3.49;68.01
64967;BME280;51710;38.732;-121.358;2023-02-23T13:17:44;100545.00;;;3.47;68.43
64967;BME280;51710;38.732;-121.358;2023-02-23T13:20:20;100551.09;;;3.47;68.05
64967;BME280;51710;38.732;-121.358;2023-02-23T13:22:58;100555.53;;;3.47;68.55
64967;BME280;51710;38.732;-121.358;2023-02-23T13:28:07;100560.91;;;3.45;68.29
64967;BME280;51710;38.732;-121.358;2023-02-23T13:30:38;100554.06;;;3.42;67.95
64967;BME280;51710;38.732;-121.358;2023-02-23T13:33:27;100560.41;;;3.40;68.28
64967;BME280;51710;38.732;-121.358;2023-02-23T13:36:03;100571.16;;;3.37;68.62
64967;BME280;51710;38.732;-121.358;2023-02-23T13:39:02;100572.00;;;3.37;68.43
64967;BME280;51710;38.732;-121.358;2023-02-23T13:41:45;100565.16;;;3.35;68.47
64967;BME280;51710;38.732;-121.358;2023-02-23T13:44:31;100562.53;;;3.35;68.17
64967;BME280;51710;38.732;-121.358;2023-02-23T13:47:05;100557.06;;;3.38;68.53
64967;BME280;51710;38.732;-121.358;2023-02-23T13:52:41;100568.22;;;3.41;68.42
64967;BME280;51710;38.732;-121.358;2023-02-23T13:57:55;100556.59;;;3.44;68.92
64967;BME280;51710;38.732;-121.358;2023-02-23T14:00:28;100557.19;;;3.47;69.04
64967;BME280;51710;38.732;-121.358;2023-02-23T14:02:55;100566.66;;;3.50;69.33
64967;BME280;51710;38.732;-121.358;2023-02-23T14:05:26;100573.47;;;3.53;69.37
64967;BME280;51710;38.732;-121.358;2023-02-23T14:07:59;100571.84;;;3.63;69.19
64967;BME280;51710;38.732;-121.358;2023-02-23T14:10:45;100582.25;;;3.64;69.14
64967;BME280;51710;38.732;-121.358;2023-02-23T14:26:16;100583.47;;;3.71;69.13
64967;BME280;51710;38.732;-121.358;2023-02-23T14:29:16;100582.50;;;3.72;69.13
64967;BME280;51710;38.732;-121.358;2023-02-23T14:32:01;100579.25;;;3.69;69.45
64967;BME280;51710;38.732;-121.358;2023-02-23T14:34:55;100579.38;;;3.67;69.07
64967;BME280;51710;38.732;-121.358;2023-02-23T14:40:16;100594.69;;;3.73;68.86
64967;BME280;51710;38.732;-121.358;2023-02-23T14:42:49;100589.41;;;3.73;69.02
64967;BME280;51710;38.732;-121.358;2023-02-23T14:45:19;100587.88;;;3.71;68.95
64967;BME280;51710;38.732;-121.358;2023-02-23T14:47:56;100592.41;;;3.69;69.10
64967;BME280;51710;38.732;-121.358;2023-02-23T14:50:30;100595.16;;;3.67;69.56
64967;BME280;51710;38.732;-121.358;2023-02-23T14:52:57;100607.59;;;3.65;68.85
64967;BME280;51710;38.732;-121.358;2023-02-23T14:55:28;100609.28;;;3.66;69.43
64967;BME280;51710;38.732;-121.358;2023-02-23T14:57:55;100611.09;;;3.66;69.19